Time;durP1;ratioP1;P1;durP2;ratioP2;P2;SDS_P1;SDS_P2;PMS_P1;PMS_P2;Temp;Humidity;BMP_temperature;BMP_pressure;BME280_temperature;BME280_humidity;BME280_pressure;Samples;Min_cycle;Max_cycle;Signal;HPM_P1;HPM_P2
2023/12/24 00:00:14;;;;;;;14.60;8.38;;;;;;;3.48;82.96;94010.41;5089306;28;20456;-72
2023/12/24 00:02:40;;;;;;;10.27;6.35;;;;;;;3.60;83.48;94028.47;5102504;28;20039;-71
2023/12/24 00:05:05;;;;;;;10.43;5.93;;;;;;;3.39;83.41;94028.16;5087052;28;20028;-71
2023/12/24 00:07:31;;;;;;;8.23;5.53;;;;;;;3.37;84.40;94017.97;5087287;28;20024;-71
2023/12/24 00:09:56;;;;;;;7.43;3.85;;;;;;;3.31;84.22;94026.09;5088097;28;20024;-71
2023/12/24 00:12:21;;;;;;;6.55;4.57;;;;;;;3.30;84.85;94027.84;5086689;28;20409;-71
2023/12/24 00:14:47;;;;;;;7.40;4.00;;;;;;;3.36;84.57;94013.78;5053029;28;20398;-71
2023/12/24 00:17:12;;;;;;;9.82;3.65;;;;;;;3.63;83.46;94020.56;5087999;28;20039;-71
2023/12/24 00:19:38;;;;;;;6.20;3.80;;;;;;;3.69;83.10;94031.22;5087097;28;20020;-71
2023/12/24 00:22:05;;;;;;;9.73;3.60;;;;;;;3.91;81.47;94025.44;5086410;28;20032;-71
2023/12/24 00:24:31;;;;;;;7.00;3.60;;;;;;;3.99;81.38;94025.72;5086285;28;20036;-71
2023/12/24 00:26:56;;;;;;;6.25;3.80;;;;;;;4.23;80.42;94030.06;5086933;28;20020;-71
2023/12/24 00:29:21;;;;;;;6.53;3.88;;;;;;;4.30;79.99;94027.91;5091526;28;20029;-72
2023/12/24 00:31:47;;;;;;;7.05;3.50;;;;;;;4.34;79.91;94037.03;5073405;28;20383;-71
2023/12/24 00:34:12;;;;;;;4.93;2.95;;;;;;;4.30;80.28;94018.44;5104288;28;20043;-71
2023/12/24 00:36:38;;;;;;;5.72;3.03;;;;;;;4.49;79.39;94041.09;5111334;28;20019;-71
2023/12/24 00:39:04;;;;;;;5.13;2.95;;;;;;;4.42;80.03;94061.28;5073565;28;20044;-70
2023/12/24 00:41:30;;;;;;;6.82;3.78;;;;;;;4.40;79.97;94067.44;5091726;28;20035;-71
2023/12/24 00:43:56;;;;;;;9.02;4.53;;;;;;;4.21;80.21;94057.66;5073340;28;20386;-71
2023/12/24 00:46:21;;;;;;;7.15;4.55;;;;;;;4.38;80.03;94075.28;5090201;28;20097;-71
2023/12/24 00:48:46;;;;;;;10.63;3.70;;;;;;;4.27;79.53;94064.94;5106615;28;20038;-72
2023/12/24 00:51:12;;;;;;;7.10;3.65;;;;;;;4.61;77.17;94081.38;5093448;28;20027;-72
2023/12/24 00:53:37;;;;;;;7.85;3.95;;;;;;;4.70;77.25;94077.31;5109988;28;20027;-72
2023/12/24 00:56:03;;;;;;;9.13;3.38;;;;;;;4.76;77.31;94079.44;5107523;28;20211;-72
2023/12/24 00:58:28;;;;;;;5.40;3.00;;;;;;;4.55;76.91;94081.81;5090095;28;20410;-72
2023/12/24 01:00:54;;;;;;;5.38;2.88;;;;;;;4.73;76.84;94096.88;5090824;28;20028;-72
2023/12/24 01:03:20;;;;;;;6.93;3.30;;;;;;;4.90;74.80;94117.91;5089937;28;20051;-71
2023/12/24 01:05:45;;;;;;;5.97;3.25;;;;;;;4.87;75.78;94105.22;5089946;28;20024;-71
2023/12/24 01:08:11;;;;;;;4.13;2.55;;;;;;;5.12;75.08;94131.78;5089820;28;20043;-72
2023/12/24 01:10:36;;;;;;;5.55;2.97;;;;;;;5.10;74.16;94123.38;5072940;28;20024;-72
2023/12/24 01:13:02;;;;;;;8.57;2.90;;;;;;;5.45;73.38;94138.81;5089806;28;20043;-72
2023/12/24 01:15:27;;;;;;;5.57;2.80;;;;;;;5.53;72.76;94122.81;5089844;28;20039;-71
2023/12/24 01:17:53;;;;;;;4.43;3.00;;;;;;;5.30;73.48;94135.63;5089674;28;20421;-72
2023/12/24 01:20:21;;;;;;;4.10;2.38;;;;;;;5.53;70.63;94141.66;5089740;28;20032;-71
2023/12/24 01:22:46;;;;;;;3.67;2.17;;;;;;;5.89;68.21;94146.78;5089711;28;20067;-72
2023/12/24 01:25:13;;;;;;;3.38;1.73;;;;;;;5.80;69.32;94133.66;5090270;28;20225;-72
2023/12/24 01:27:38;;;;;;;6.32;2.20;;;;;;;5.94;69.48;94145.53;5089626;28;20111;-71
2023/12/24 01:30:04;;;;;;;3.28;1.38;;;;;;;5.91;66.86;94152.66;5089575;28;20069;-71
2023/12/24 01:32:30;;;;;;;4.40;1.88;;;;;;;6.14;66.17;94149.19;5090749;28;20529;-71
2023/12/24 01:34:55;;;;;;;3.25;1.55;;;;;;;6.13;66.38;94150.13;5099877;28;20040;-72
2023/12/24 01:37:21;;;;;;;2.35;1.33;;;;;;;6.12;65.50;94171.69;5109999;28;20042;-72
2023/12/24 01:39:46;;;;;;;2.50;1.25;;;;;;;6.18;64.13;94166.03;5092755;28;20478;-72
2023/12/24 01:42:11;;;;;;;4.07;1.70;;;;;;;6.32;63.84;94169.34;5111070;28;20024;-72
2023/12/24 01:44:37;;;;;;;2.08;1.30;;;;;;;6.16;63.74;94136.19;5093113;28;20035;-72
2023/12/24 01:47:02;;;;;;;2.22;1.10;;;;;;;6.19;62.92;94167.72;5109469;28;20058;-72
2023/12/24 01:49:28;;;;;;;2.92;1.20;;;;;;;6.31;63.34;94162.56;5092829;28;20521;-71
2023/12/24 01:51:53;;;;;;;2.28;1.38;;;;;;;6.31;63.45;94162.56;5109720;28;20408;-71
2023/12/24 01:54:19;;;;;;;2.45;1.42;;;;;;;6.31;63.35;94147.88;5109717;28;20031;-71
2023/12/24 01:56:44;;;;;;;3.40;1.40;;;;;;;6.51;61.95;94161.84;5075662;28;20059;-71
2023/12/24 01:59:10;;;;;;;4.00;1.25;;;;;;;6.41;62.13;94171.25;5092887;28;20035;-71
2023/12/24 02:01:35;;;;;;;3.40;1.60;;;;;;;6.39;62.42;94186.00;5075921;28;20020;-71
2023/12/24 02:04:01;;;;;;;3.33;1.27;;;;;;;6.35;61.62;94179.44;5076028;28;20123;-71
2023/12/24 02:06:26;;;;;;;2.53;1.45;;;;;;;6.51;61.50;94181.66;5092705;28;20382;-71
2023/12/24 02:08:52;;;;;;;3.47;1.40;;;;;;;6.53;61.81;94178.03;5109766;28;20036;-72
2023/12/24 02:11:17;;;;;;;2.42;1.30;;;;;;;6.55;61.99;94183.91;5109541;28;20024;-72
2023/12/24 02:13:43;;;;;;;2.85;1.70;;;;;;;6.54;61.76;94181.44;5092776;28;20044;-72
2023/12/24 02:16:09;;;;;;;3.08;1.23;;;;;;;6.54;61.89;94191.75;5082632;28;20105;-72
2023/12/24 02:18:34;;;;;;;2.72;1.27;;;;;;;6.54;61.82;94199.50;5089280;28;20029;-72
2023/12/24 02:21:03;;;;;;;3.25;1.52;;;;;;;6.65;61.35;94196.91;5090661;28;20419;-72
2023/12/24 02:23:29;;;;;;;2.38;1.50;;;;;;;6.63;61.43;94198.78;5089248;28;20036;-72
2023/12/24 02:25:56;;;;;;;11.40;6.65;;;;;;;6.47;61.47;94184.47;5107733;28;20161;-72
2023/12/24 02:28:27;;;;;;;2.47;1.38;;;;;;;6.54;60.98;94195.16;5075679;28;20039;-72
2023/12/24 02:30:57;;;;;;;3.58;1.52;;;;;;;6.57;60.30;94205.22;5093156;28;20054;-72
2023/12/24 02:33:24;;;;;;;2.47;1.38;;;;;;;6.55;61.16;94191.66;5109452;28;20089;-72
2023/12/24 02:35:49;;;;;;;3.17;1.80;;;;;;;6.56;60.48;94182.94;5075867;28;20032;-72
2023/12/24 02:38:15;;;;;;;2.78;1.52;;;;;;;6.55;61.26;94185.66;5096045;28;20557;-72
2023/12/24 02:40:40;;;;;;;4.05;1.50;;;;;;;6.44;60.83;94181.31;5114338;28;20024;-71
2023/12/24 02:43:08;;;;;;;2.55;1.52;;;;;;;6.49;61.49;94192.09;5095904;28;20031;-71
2023/12/24 02:45:33;;;;;;;3.72;1.52;;;;;;;6.51;61.00;94194.56;5114226;28;20032;-71
2023/12/24 02:47:59;;;;;;;2.25;1.58;;;;;;;6.55;61.17;94201.16;5112874;28;20490;-71
2023/12/24 02:50:24;;;;;;;3.13;1.50;;;;;;;6.39;61.87;94202.31;5095812;28;20031;-71
2023/12/24 02:52:49;;;;;;;4.45;1.77;;;;;;;6.22;62.32;94195.84;5113880;28;20047;-71
2023/12/24 02:55:15;;;;;;;2.28;1.40;;;;;;;6.24;62.08;94195.72;5112716;28;20035;-71
2023/12/24 02:57:40;;;;;;;3.95;1.65;;;;;;;6.34;62.49;94208.75;5112357;28;20421;-71
2023/12/24 03:00:08;;;;;;;2.35;1.50;;;;;;;6.26;61.67;94210.13;5113897;28;20485;-71
2023/12/24 03:02:34;;;;;;;3.33;1.98;;;;;;;6.26;62.42;94209.31;5112459;28;20462;-71
2023/12/24 03:04:59;;;;;;;2.10;1.30;;;;;;;6.24;61.99;94203.44;5078834;28;20028;-72
2023/12/24 03:07:24;;;;;;;2.97;1.70;;;;;;;6.25;62.90;94213.66;5078460;28;20032;-72
2023/12/24 03:09:50;;;;;;;2.30;1.52;;;;;;;6.04;62.42;94185.16;5078726;28;20028;-73
2023/12/24 03:12:17;;;;;;;2.45;1.38;;;;;;;6.18;62.88;94207.31;5095379;28;20035;-72
2023/12/24 03:14:42;;;;;;;1.90;1.30;;;;;;;6.15;62.18;94219.63;5112609;28;20080;-72
2023/12/24 03:17:08;;;;;;;3.58;1.27;;;;;;;6.21;61.64;94217.44;5112156;28;20036;-72
2023/12/24 03:19:33;;;;;;;2.50;1.45;;;;;;;6.19;61.23;94219.28;5113884;28;20466;-72
2023/12/24 03:21:59;;;;;;;2.70;1.30;;;;;;;6.30;61.37;94223.66;5113392;28;20100;-72
2023/12/24 03:24:24;;;;;;;2.47;1.30;;;;;;;6.11;61.32;94233.69;5112267;28;20024;-72
2023/12/24 03:26:50;;;;;;;1.90;1.10;;;;;;;6.11;61.15;94238.84;5113156;28;20023;-72
2023/12/24 03:29:16;;;;;;;2.20;1.40;;;;;;;6.28;60.99;94235.00;5113416;28;20039;-72
2023/12/24 03:31:41;;;;;;;2.70;1.80;;;;;;;6.06;60.32;94252.09;5113189;28;20054;-72
2023/12/24 03:34:07;;;;;;;2.15;1.30;;;;;;;6.12;60.19;94250.81;5094873;28;20521;-73
2023/12/24 03:36:32;;;;;;;2.60;1.55;;;;;;;6.19;60.26;94244.28;5113042;28;20027;-73
2023/12/24 03:38:57;;;;;;;2.30;1.52;;;;;;;6.25;60.09;94242.03;5112065;28;20495;-73
2023/12/24 03:41:23;;;;;;;2.45;1.38;;;;;;;6.33;59.90;94244.06;5111903;28;20485;-73
2023/12/24 03:43:48;;;;;;;3.90;1.73;;;;;;;6.41;59.56;94256.38;5111881;28;20020;-73
2023/12/24 03:46:18;;;;;;;2.47;1.52;;;;;;;6.52;59.43;94264.13;5091734;28;20032;-73
2023/12/24 03:48:44;;;;;;;3.65;2.15;;;;;;;6.39;60.70;94259.06;5090594;28;20043;-73
2023/12/24 03:51:11;;;;;;;3.03;1.45;;;;;;;6.46;60.34;94273.16;5091087;28;20032;-73
2023/12/24 03:53:37;;;;;;;3.83;1.70;;;;;;;6.30;60.58;94274.44;5091427;28;20573;-70
2023/12/24 03:56:03;;;;;;;2.95;1.55;;;;;;;6.44;60.08;94287.94;5091544;28;20108;-71
2023/12/24 03:58:28;;;;;;;2.20;1.40;;;;;;;6.40;60.46;94276.19;5090974;28;20075;-72
2023/12/24 04:00:54;;;;;;;2.53;1.52;;;;;;;6.20;60.46;94259.63;5091154;28;20441;-71
2023/12/24 04:03:19;;;;;;;2.80;1.70;;;;;;;6.40;60.05;94291.66;5092133;28;20490;-71
2023/12/24 04:05:45;;;;;;;3.33;1.88;;;;;;;6.32;60.32;94298.34;5091025;28;20532;-71
2023/12/24 04:08:10;;;;;;;4.25;1.80;;;;;;;6.40;60.15;94306.31;5074029;28;20039;-71
2023/12/24 04:10:39;;;;;;;3.22;1.60;;;;;;;6.38;59.72;94314.19;5091841;28;20031;-72
2023/12/24 04:13:05;;;;;;;2.63;1.88;;;;;;;6.46;60.43;94321.34;5090823;28;20119;-71
2023/12/24 04:15:31;;;;;;;2.97;1.70;;;;;;;6.33;60.38;94307.72;5090860;28;20024;-72
2023/12/24 04:17:56;;;;;;;2.60;1.70;;;;;;;6.45;60.12;94327.44;5092156;28;20028;-71
2023/12/24 04:20:21;;;;;;;2.42;1.65;;;;;;;6.44;60.64;94341.31;5112382;28;20027;-72
2023/12/24 04:22:47;;;;;;;3.25;1.88;;;;;;;6.34;61.00;94345.47;5110980;28;20096;-72
2023/12/24 04:25:12;;;;;;;4.18;2.83;;;;;;;6.38;61.30;94354.63;5111314;28;20042;-72
2023/12/24 04:27:38;;;;;;;3.40;2.00;;;;;;;6.37;60.97;94355.56;5110950;28;20053;-72
2023/12/24 04:30:03;;;;;;;3.75;1.70;;;;;;;6.36;60.74;94356.53;5094041;28;20467;-72
2023/12/24 04:32:29;;;;;;;4.07;2.00;;;;;;;6.32;61.69;94355.09;5093920;28;20081;-72
2023/12/24 04:34:54;;;;;;;2.50;1.60;;;;;;;6.35;61.51;94352.28;5112484;28;20035;-72
2023/12/24 04:37:19;;;;;;;3.13;1.75;;;;;;;6.37;61.43;94350.41;5111933;28;20501;-72
2023/12/24 04:39:45;;;;;;;2.95;1.80;;;;;;;6.40;61.70;94347.59;5077002;28;20504;-72
2023/12/24 04:42:10;;;;;;;4.88;1.67;;;;;;;6.33;61.30;94346.44;5111828;28;20031;-72
2023/12/24 04:44:39;;;;;;;3.63;2.08;;;;;;;6.28;61.33;94336.44;5112302;28;20032;-71
2023/12/24 04:47:06;;;;;;;4.53;2.53;;;;;;;6.41;61.12;94339.75;5093539;28;20104;-73
2023/12/24 04:49:31;;;;;;;4.32;2.25;;;;;;;6.48;61.01;94353.03;5076593;28;20466;-73
2023/12/24 04:51:58;;;;;;;4.70;2.30;;;;;;;6.35;61.69;94355.72;5090002;28;20028;-72
2023/12/24 04:54:24;;;;;;;6.95;3.00;;;;;;;6.42;61.06;94366.38;5090287;28;20044;-72
2023/12/24 04:56:49;;;;;;;11.48;5.50;;;;;;;6.30;62.65;94355.22;5078046;28;20409;-73
2023/12/24 04:59:15;;;;;;;6.78;3.38;;;;;;;6.17;62.72;94375.91;5110551;28;20081;-71
2023/12/24 05:01:40;;;;;;;2.70;1.80;;;;;;;6.20;62.39;94367.13;5093390;28;20050;-71
2023/12/24 05:04:06;;;;;;;2.35;1.52;;;;;;;6.29;62.21;94373.38;5111783;28;20039;-71
2023/12/24 05:06:31;;;;;;;3.10;2.17;;;;;;;6.40;62.35;94373.41;5110288;28;20107;-71
2023/12/24 05:08:57;;;;;;;3.67;2.33;;;;;;;6.30;62.10;94380.19;5109817;28;20044;-71
2023/12/24 05:11:22;;;;;;;5.30;2.47;;;;;;;6.22;63.18;94394.47;5079522;28;20089;-71
2023/12/24 05:13:48;;;;;;;2.78;1.67;;;;;;;6.13;62.94;94394.28;5065607;28;20077;-70
2023/12/24 05:16:13;;;;;;;4.13;1.50;;;;;;;6.10;62.73;94390.19;5085013;28;20024;-70
2023/12/24 05:18:39;;;;;;;3.05;1.85;;;;;;;6.08;61.95;94381.75;5086072;28;20062;-70
2023/12/24 05:21:04;;;;;;;2.03;1.30;;;;;;;6.28;61.32;94395.78;5052287;28;20051;-69
2023/12/24 05:23:30;;;;;;;3.08;2.10;;;;;;;6.39;60.86;94403.56;5083706;28;20040;-69
2023/12/24 05:25:55;;;;;;;3.60;2.70;;;;;;;6.56;61.00;94414.41;5070972;28;20028;-69
2023/12/24 05:28:21;;;;;;;3.25;2.30;;;;;;;6.60;61.54;94416.66;5087264;28;20028;-70
2023/12/24 05:30:46;;;;;;;3.83;3.10;;;;;;;6.51;61.68;94416.50;5085179;28;20028;-68
2023/12/24 05:33:12;;;;;;;3.65;2.15;;;;;;;6.52;61.96;94408.66;5084554;28;20115;-69
2023/12/24 05:35:37;;;;;;;4.22;2.50;;;;;;;6.65;60.73;94408.56;5068406;28;20028;-69
2023/12/24 05:38:03;;;;;;;3.40;2.88;;;;;;;6.44;61.94;94411.78;5086749;28;20046;-69
2023/12/24 05:40:28;;;;;;;5.22;2.75;;;;;;;6.52;61.26;94398.34;5084754;28;20043;-69
2023/12/24 05:42:54;;;;;;;4.18;2.58;;;;;;;6.67;61.82;94381.69;5070986;28;20093;-69
2023/12/24 05:45:20;;;;;;;4.25;2.33;;;;;;;6.42;62.40;94387.03;5070143;28;20030;-69
2023/12/24 05:47:45;;;;;;;2.75;1.63;;;;;;;6.22;63.27;94391.88;5066857;28;20038;-69
2023/12/24 05:50:10;;;;;;;5.30;1.50;;;;;;;6.25;63.56;94407.13;5067839;28;20039;-69
2023/12/24 05:52:37;;;;;;;10.60;4.18;;;;;;;6.14;63.29;94412.25;5084343;28;20028;-69
2023/12/24 05:55:03;;;;;;;4.28;2.60;;;;;;;6.21;62.57;94418.63;5085917;28;20032;-69
2023/12/24 05:57:28;;;;;;;4.05;1.75;;;;;;;6.30;62.65;94406.00;5119855;27;20498;-69
2023/12/24 05:59:54;;;;;;;3.03;1.50;;;;;;;6.31;62.74;94403.28;5085550;28;20433;-69
2023/12/24 06:02:19;;;;;;;3.13;1.17;;;;;;;6.24;63.21;94400.34;5067522;28;20028;-69
2023/12/24 06:04:44;;;;;;;2.78;1.50;;;;;;;6.36;63.41;94405.53;5086877;28;20028;-70
2023/12/24 06:07:10;;;;;;;3.22;1.70;;;;;;;6.14;63.40;94407.09;5085226;28;20103;-69
2023/12/24 06:09:35;;;;;;;4.55;2.00;;;;;;;6.40;61.92;94405.19;5089718;28;20494;-69
2023/12/24 06:12:01;;;;;;;4.70;1.80;;;;;;;6.50;62.39;94413.09;5087197;28;20032;-69
2023/12/24 06:14:26;;;;;;;2.40;1.33;;;;;;;6.37;63.90;94409.75;5072297;28;20032;-70
2023/12/24 06:16:52;;;;;;;8.15;2.03;;;;;;;6.22;64.84;94412.50;5090209;28;20036;-69
2023/12/24 06:19:17;;;;;;;2.75;1.77;;;;;;;6.19;64.45;94407.56;5091676;28;20594;-70
2023/12/24 06:21:43;;;;;;;3.05;1.35;;;;;;;6.24;63.77;94415.81;5090435;28;20031;-69
2023/12/24 06:24:08;;;;;;;3.03;1.60;;;;;;;6.10;64.88;94425.44;5088326;28;20031;-69
2023/12/24 06:26:34;;;;;;;2.53;1.48;;;;;;;6.09;63.24;94427.22;5088829;28;20028;-69
2023/12/24 06:28:59;;;;;;;2.15;1.33;;;;;;;6.00;65.84;94417.56;5072333;28;20040;-69
2023/12/24 06:31:24;;;;;;;2.63;1.58;;;;;;;6.01;64.77;94426.94;5087586;28;20485;-69
2023/12/24 06:33:50;;;;;;;2.70;1.88;;;;;;;6.19;64.31;94442.88;5087242;28;20040;-69
2023/12/24 06:36:16;;;;;;;3.45;1.60;;;;;;;6.22;64.30;94433.16;5070682;28;20036;-69
2023/12/24 06:38:41;;;;;;;3.35;1.80;;;;;;;6.08;64.11;94441.06;5091090;28;20406;-69
2023/12/24 06:41:07;;;;;;;2.30;1.33;;;;;;;6.16;65.42;94428.44;5074432;28;20421;-70
2023/12/24 06:43:32;;;;;;;2.42;1.40;;;;;;;6.06;67.24;94435.16;5070169;28;20463;-70
2023/12/24 06:45:57;;;;;;;2.85;1.50;;;;;;;6.01;66.68;94435.50;5089653;28;20062;-68
2023/12/24 06:48:23;;;;;;;3.65;1.30;;;;;;;6.09;66.85;94447.03;5091088;28;20044;-70
2023/12/24 06:50:48;;;;;;;2.20;1.30;;;;;;;5.91;66.48;94436.25;5091168;28;20482;-70
2023/12/24 06:53:14;;;;;;;3.00;1.70;;;;;;;5.86;65.38;94441.72;5086691;28;20039;-70
2023/12/24 06:55:39;;;;;;;2.30;1.40;;;;;;;6.21;63.90;94470.22;5090368;28;20111;-70
2023/12/24 06:58:06;;;;;;;4.05;2.60;;;;;;;6.16;63.53;94467.13;5090086;28;20105;-71
2023/12/24 07:00:32;;;;;;;5.68;2.97;;;;;;;6.30;63.35;94478.22;5098747;28;20032;-69
2023/12/24 07:02:57;;;;;;;6.30;3.40;;;;;;;6.56;62.48;94495.22;5111388;28;20469;-70
2023/12/24 07:05:23;;;;;;;4.07;2.45;;;;;;;6.66;62.89;94503.16;5113860;28;20031;-71
2023/12/24 07:07:48;;;;;;;3.60;1.75;;;;;;;6.54;64.32;94506.59;5095192;28;20051;-68
2023/12/24 07:10:14;;;;;;;6.55;2.97;;;;;;;6.69;60.82;94505.50;5112450;28;20409;-69
2023/12/24 07:12:39;;;;;;;5.32;3.05;;;;;;;6.88;60.77;94510.13;5073322;28;20051;-68
2023/12/24 07:15:06;;;;;;;2.90;1.65;;;;;;;6.87;61.87;94504.16;5104978;28;20030;-69
2023/12/24 07:17:31;;;;;;;3.47;2.10;;;;;;;6.80;61.79;94504.69;5091982;28;20028;-68
2023/12/24 07:19:57;;;;;;;5.85;2.97;;;;;;;6.90;60.99;94495.34;5096087;27;20028;-68
2023/12/24 07:22:23;;;;;;;4.10;2.50;;;;;;;6.95;61.76;94493.25;5089651;28;20474;-70
2023/12/24 07:24:48;;;;;;;5.57;2.80;;;;;;;7.27;59.44;94503.81;5092198;28;20448;-67
2023/12/24 07:27:14;;;;;;;3.25;1.95;;;;;;;7.42;61.64;94498.41;5074541;28;20020;-67
2023/12/24 07:29:42;;;;;;;3.63;2.17;;;;;;;7.46;59.47;94498.06;5092037;28;20032;-67
2023/12/24 07:32:08;;;;;;;8.40;5.75;;;;;;;7.37;60.94;94499.56;5091468;28;20074;-68
2023/12/24 07:34:33;;;;;;;3.78;2.58;;;;;;;7.35;62.84;94482.53;5091694;28;20067;-66
2023/12/24 07:36:59;;;;;;;19.50;8.27;;;;;;;7.30;60.92;94494.97;5082262;28;20028;-65
2023/12/24 07:39:25;;;;;;;15.52;7.25;;;;;;;7.51;60.61;94503.72;5052609;28;20036;-68
2023/12/24 07:41:50;;;;;;;9.85;5.50;;;;;;;7.29;60.00;94517.41;5049094;28;20031;-67
2023/12/24 07:44:16;;;;;;;7.50;3.22;;;;;;;7.46;59.30;94518.72;5056476;28;20036;-67
2023/12/24 07:46:43;;;;;;;3.00;1.88;;;;;;;7.56;58.89;94511.94;5089476;28;20063;-66
2023/12/24 07:49:09;;;;;;;4.55;2.90;;;;;;;7.80;59.62;94518.75;5082987;28;20058;-67
2023/12/24 07:51:34;;;;;;;2.92;1.73;;;;;;;7.84;58.36;94499.50;5088205;28;20028;-67
2023/12/24 07:54:00;;;;;;;2.63;1.40;;;;;;;7.93;56.01;94508.31;5070247;28;20036;-67
2023/12/24 07:56:25;;;;;;;2.10;1.00;;;;;;;8.05;55.52;94497.84;5091153;28;20043;-67
2023/12/24 07:58:51;;;;;;;2.92;1.27;;;;;;;8.10;55.14;94496.66;5069930;28;20399;-68
2023/12/24 08:01:16;;;;;;;1.90;0.88;;;;;;;8.19;55.19;94498.50;5089590;28;20042;-67
2023/12/24 08:03:41;;;;;;;1.73;1.00;;;;;;;8.34;55.93;94507.66;5092312;28;20028;-68
2023/12/24 08:06:07;;;;;;;3.20;0.90;;;;;;;8.56;56.60;94511.19;5053751;28;20027;-68
2023/12/24 08:08:32;;;;;;;1.73;1.10;;;;;;;8.75;57.03;94521.72;5089518;28;20044;-67
2023/12/24 08:10:58;;;;;;;3.28;1.10;;;;;;;8.95;57.34;94520.94;5088893;28;20482;-67
2023/12/24 08:13:23;;;;;;;2.20;1.10;;;;;;;9.09;56.41;94517.22;5091563;28;20040;-67
2023/12/24 08:15:48;;;;;;;1.77;1.05;;;;;;;9.16;52.56;94509.75;5090614;28;20028;-67
2023/12/24 08:18:14;;;;;;;2.72;1.52;;;;;;;8.98;51.67;94499.13;5092039;28;20028;-66
2023/12/24 08:20:39;;;;;;;2.80;1.40;;;;;;;9.00;51.20;94486.88;5090784;28;20043;-66
2023/12/24 08:23:07;;;;;;;2.42;1.30;;;;;;;8.97;52.29;94461.22;5073635;28;20028;-67
2023/12/24 08:25:32;;;;;;;3.33;1.20;;;;;;;9.04;51.25;94457.16;5090076;28;20119;-66
2023/12/24 08:27:59;;;;;;;2.45;1.40;;;;;;;9.17;52.23;94480.31;5090732;28;20099;-67
2023/12/24 08:30:25;;;;;;;4.25;1.83;;;;;;;9.11;51.56;94471.28;5090015;28;20036;-67
2023/12/24 08:32:50;;;;;;;5.78;3.33;;;;;;;9.30;52.36;94475.72;5088609;28;20056;-67
2023/12/24 08:35:16;;;;;;;3.13;1.50;;;;;;;9.35;51.21;94465.00;5071255;28;20391;-67
2023/12/24 08:37:41;;;;;;;4.97;1.80;;;;;;;9.41;51.46;94469.66;5087017;28;20406;-67
2023/12/24 08:40:07;;;;;;;7.32;2.60;;;;;;;9.34;51.27;94464.19;5088394;28;20024;-67
2023/12/24 08:42:32;;;;;;;4.32;1.92;;;;;;;9.67;50.15;94475.28;5089466;28;20028;-67
2023/12/24 08:44:58;;;;;;;3.15;2.10;;;;;;;9.59;52.51;94480.28;5090056;28;20032;-67
2023/12/24 08:47:23;;;;;;;3.28;1.90;;;;;;;9.59;52.21;94493.25;5090103;28;20032;-68
2023/12/24 08:49:49;;;;;;;4.10;1.98;;;;;;;9.66;52.57;94499.53;5073521;28;20523;-67
2023/12/24 08:52:14;;;;;;;3.58;2.20;;;;;;;9.79;53.76;94494.97;5090051;28;20044;-67
2023/12/24 08:54:39;;;;;;;3.00;1.35;;;;;;;9.88;49.24;94479.56;5091847;28;20509;-67
2023/12/24 08:57:07;;;;;;;3.22;1.88;;;;;;;9.97;50.66;94481.38;5073155;28;20513;-67
2023/12/24 08:59:32;;;;;;;2.28;1.20;;;;;;;9.98;49.72;94483.84;5073412;28;20043;-67
2023/12/24 09:01:57;;;;;;;2.13;1.45;;;;;;;9.82;49.92;94494.72;5090065;28;20047;-67
2023/12/24 09:04:23;;;;;;;3.00;1.50;;;;;;;9.91;49.14;94487.09;5089991;28;20032;-67
2023/12/24 09:06:48;;;;;;;2.70;1.60;;;;;;;9.95;48.72;94467.75;5089986;28;20085;-67
2023/12/24 09:09:14;;;;;;;2.40;1.50;;;;;;;10.04;47.85;94472.13;5090128;28;20032;-67
2023/12/24 09:11:40;;;;;;;3.35;1.60;;;;;;;10.16;47.84;94483.22;5091079;28;20028;-67
2023/12/24 09:14:05;;;;;;;9.52;3.35;;;;;;;9.89;50.77;94468.25;5073186;28;20401;-67
2023/12/24 09:16:31;;;;;;;6.82;4.43;;;;;;;9.79;50.89;94484.59;5056583;28;20073;-67
2023/12/24 09:18:56;;;;;;;9.98;7.85;;;;;;;10.15;49.75;94463.41;5089963;28;20378;-67
2023/12/24 09:21:21;;;;;;;5.72;4.47;;;;;;;10.22;51.16;94467.09;5073026;28;20035;-67
2023/12/24 09:23:47;;;;;;;9.73;4.43;;;;;;;9.87;54.05;94470.97;5072983;28;20040;-68
2023/12/24 09:26:12;;;;;;;4.88;3.20;;;;;;;10.20;51.79;94475.03;5090942;28;20021;-68
2023/12/24 09:28:38;;;;;;;4.82;2.97;;;;;;;10.24;49.91;94466.03;5089848;28;20106;-68
2023/12/24 09:31:03;;;;;;;5.10;3.10;;;;;;;10.10;51.36;94469.00;5091026;28;20300;-69
2023/12/24 09:33:28;;;;;;;6.53;4.05;;;;;;;10.32;51.88;94475.78;5091046;28;20055;-69
2023/12/24 09:35:54;;;;;;;6.72;4.00;;;;;;;10.38;51.03;94470.03;5089736;28;20077;-68
2023/12/24 09:38:19;;;;;;;5.68;3.13;;;;;;;10.50;50.30;94474.19;5089482;28;20093;-68
2023/12/24 09:40:45;;;;;;;6.10;3.67;;;;;;;10.16;50.75;94454.66;5090881;28;20021;-69
2023/12/24 09:43:10;;;;;;;4.80;3.17;;;;;;;10.26;50.61;94471.91;5090845;28;20040;-69
2023/12/24 09:45:35;;;;;;;8.10;3.20;;;;;;;10.60;48.92;94463.78;5090847;28;20481;-68
2023/12/24 09:48:01;;;;;;;3.83;2.78;;;;;;;10.60;48.99;94466.38;5093562;28;20039;-69
2023/12/24 09:50:27;;;;;;;7.63;4.03;;;;;;;10.36;50.39;94463.34;5076981;28;20028;-68
2023/12/24 09:52:53;;;;;;;11.52;5.63;;;;;;;10.33;50.95;94467.03;5076616;28;20452;-69
2023/12/24 09:55:18;;;;;;;8.05;3.47;;;;;;;10.56;50.88;94472.81;5076712;28;20016;-69
2023/12/24 19:41:20;;;;;;;9.60;5.90;;;;;;;4.57;75.13;94609.06;4959665;28;20535;-71
2023/12/24 19:43:46;;;;;;;12.13;5.25;;;;;;;4.78;74.83;94594.88;4972691;28;20039;-73
2023/12/24 19:46:20;;;;;;;10.05;4.72;;;;;;;4.66;75.21;94600.81;4972649;28;20035;-71
2023/12/24 19:48:46;;;;;;;7.30;4.80;;;;;;;4.84;74.52;94581.59;4972834;28;20041;-70
2023/12/24 19:51:11;;;;;;;13.57;7.88;;;;;;;4.85;74.64;94574.72;4966755;28;20035;-68
2023/12/24 19:53:37;;;;;;;10.43;6.55;;;;;;;4.87;74.86;94565.97;4969130;28;20117;-69
2023/12/24 19:56:03;;;;;;;13.82;6.50;;;;;;;4.75;75.38;94566.75;4970121;28;20030;-69
2023/12/24 19:58:29;;;;;;;8.70;4.80;;;;;;;4.77;75.06;94553.81;4967729;28;20432;-69
2023/12/24 20:00:54;;;;;;;60.38;21.70;;;;;;;4.82;74.86;94536.28;4967627;28;20042;-70
2023/12/24 20:03:19;;;;;;;24.95;12.20;;;;;;;4.65;75.44;94533.09;4971827;28;20031;-71
2023/12/24 20:05:45;;;;;;;26.80;12.90;;;;;;;4.65;75.53;94527.09;4952338;28;20034;-70
2023/12/24 20:08:10;;;;;;;13.68;6.40;;;;;;;4.85;74.94;94526.66;4984915;28;20663;-70
2023/12/24 20:10:36;;;;;;;55.67;30.00;;;;;;;4.88;73.55;94530.78;4976270;28;20026;-69
2023/12/24 20:13:01;;;;;;;36.03;19.60;;;;;;;4.78;74.05;94524.56;4935965;28;20101;-71
2023/12/24 20:15:28;;;;;;;20.65;11.10;;;;;;;4.55;75.50;94554.34;4968185;28;20084;-69
2023/12/24 20:17:53;;;;;;;25.35;13.15;;;;;;;4.72;74.83;94556.66;4986532;28;20234;-68
2023/12/24 20:20:19;;;;;;;31.02;16.48;;;;;;;4.68;74.66;94550.03;4968064;28;20042;-71
2023/12/24 20:22:44;;;;;;;26.92;17.27;;;;;;;4.76;73.31;94563.25;4970008;28;20023;-69
2023/12/24 20:25:09;;;;;;;27.75;15.40;;;;;;;4.83;73.32;94564.53;4964966;28;20046;-69
2023/12/24 20:27:35;;;;;;;29.13;14.98;;;;;;;4.54;73.63;94553.53;4951184;28;20039;-70
2023/12/24 20:30:00;;;;;;;23.48;13.82;;;;;;;4.54;74.34;94557.81;4968392;28;20043;-69
2023/12/24 20:32:26;;;;;;;19.42;11.48;;;;;;;4.67;73.95;94572.38;4966063;28;20027;-69
2023/12/24 20:34:51;;;;;;;21.17;12.18;;;;;;;4.69;73.97;94582.59;4986004;28;20042;-69
2023/12/24 20:37:17;;;;;;;22.48;13.77;;;;;;;4.68;73.75;94591.22;4982677;28;20034;-69
2023/12/24 20:39:43;;;;;;;27.25;16.25;;;;;;;4.50;73.33;94595.78;4983179;28;20412;-69
2023/12/24 20:42:08;;;;;;;30.75;17.15;;;;;;;4.31;74.45;94593.53;4951447;28;20034;-69
2023/12/24 20:44:38;;;;;;;29.05;16.17;;;;;;;4.25;74.65;94599.88;4951536;28;20031;-69
2023/12/24 20:47:03;;;;;;;28.33;16.27;;;;;;;4.33;74.34;94616.59;4968834;28;20046;-68
2023/12/24 20:49:29;;;;;;;27.60;15.93;;;;;;;4.37;73.45;94616.28;4998658;28;20117;-70
2023/12/24 20:51:54;;;;;;;34.50;19.88;;;;;;;4.14;74.07;94612.56;4967905;28;20424;-69
2023/12/24 20:54:19;;;;;;;41.72;21.98;;;;;;;4.06;74.85;94608.81;4984016;28;20522;-69
2023/12/24 20:56:45;;;;;;;30.38;16.30;;;;;;;4.32;74.21;94631.19;4982216;28;20035;-69
2023/12/24 20:59:10;;;;;;;25.20;13.50;;;;;;;4.39;74.26;94639.34;4987740;28;20042;-69
2023/12/24 21:01:36;;;;;;;37.25;21.33;;;;;;;4.07;75.31;94623.28;4983487;28;20054;-70
2023/12/24 21:04:02;;;;;;;42.90;22.20;;;;;;;4.32;74.79;94641.47;4984299;28;20034;-70
2023/12/24 21:06:29;;;;;;;37.42;18.88;;;;;;;4.28;74.96;94645.16;4962522;28;20110;-70
2023/12/24 21:08:55;;;;;;;24.00;13.18;;;;;;;4.30;75.23;94645.06;4967151;28;20093;-69
2023/12/24 21:11:21;;;;;;;14.35;9.13;;;;;;;4.14;75.31;94624.59;4967551;28;20404;-69
2023/12/24 21:13:47;;;;;;;20.63;11.63;;;;;;;3.88;76.62;94641.59;4984095;28;20051;-70